»·PEaware :: AAY427 KLAS-KIWA

AAY427 :: KLAS-KIWA

FLIGHT INFORMATION

Flight Status: Arrived
Operator:
Allegiant Air
More flights by this operator :: More flights under this callsign
Pilot: Ben F. (13029)
Aircraft: MCDONNELL-DOUGLAS MD-88
(MD88)
More flights by this aircraft type
Origin: KLAS McCarran Intl
United States
Destination: KIWA Williams Gateway
United States
More flights between these airports :: More routes between these airports
Route: PRFUM4 DRK DSERT DSERT2
File this flight plan on PilotEdge
Remarks: RMK / SIMBRIEF
Altitude:
(Current/Filed)
33,000ft
Speed:
(Current/Filed)
443kts
Departed: 07-Apr-19 12:11 PM
Arrived: 07-Apr-19 01:00 PM
Distance/Time
Traveled:
205nm/0:48
Distance/Time
To Go:
Arrived

Flight Plot

Page will automatically refresh every two minutes.

Flight plan parsing failed; only flown route is shown


Map Options




Map Legend


Flown Route
Filed Route
Departure Airport
Arrival Airport
Navaid (VOR, NDB)
Fix

Horizontal Profiles

Position Reports

Time Latitude Longitude Heading Altitude Ground
Speed
07-Apr-19 11:43 36.080187 -115.136278 61 2117ft 0kts
07-Apr-19 11:44 36.080187 -115.136278 61 2117ft 0kts
07-Apr-19 11:45 36.080187 -115.136278 61 2117ft 0kts
07-Apr-19 11:46 36.080187 -115.136278 61 2117ft 0kts
07-Apr-19 11:47 36.080187 -115.136278 61 2117ft 0kts
07-Apr-19 11:48 36.080187 -115.136278 61 2117ft 0kts
07-Apr-19 11:49 36.080187 -115.136278 61 2117ft 0kts
07-Apr-19 11:50 36.080187 -115.136278 61 2117ft 0kts
07-Apr-19 11:51 36.080187 -115.136278 61 2117ft 0kts
07-Apr-19 11:52 36.080187 -115.136278 61 2117ft 0kts
07-Apr-19 11:53 36.080187 -115.136278 61 2117ft 0kts
07-Apr-19 11:54 36.080187 -115.136278 61 2117ft 0kts
07-Apr-19 11:55 36.080187 -115.136278 61 2117ft 0kts
07-Apr-19 11:56 36.080187 -115.136278 61 2117ft 0kts
07-Apr-19 11:57 36.080187 -115.136278 61 2117ft 0kts
07-Apr-19 11:58 36.080187 -115.136278 61 2117ft 0kts
07-Apr-19 11:59 36.080187 -115.136278 61 2117ft 0kts
07-Apr-19 12:00 36.079988 -115.136736 62 2117ft 2kts
07-Apr-19 12:01 36.080056 -115.137382 132 2117ft 0kts
07-Apr-19 12:02 36.080105 -115.137442 135 2117ft 0kts
07-Apr-19 12:03 36.080105 -115.137442 135 2117ft 0kts
07-Apr-19 12:04 36.079541 -115.136752 135 2117ft 12kts
07-Apr-19 12:05 36.079074 -115.136172 132 2117ft 0kts
07-Apr-19 12:06 36.078273 -115.134906 101 2117ft 18kts
07-Apr-19 12:07 36.077509 -115.131446 90 2117ft 15kts
07-Apr-19 12:08 36.077522 -115.124422 90 2117ft 17kts
07-Apr-19 12:09 36.076849 -115.121329 176 2117ft 8kts
07-Apr-19 12:10 36.076391 -115.139113 266 2120ft 153kts
07-Apr-19 12:11 36.076538 -115.196090 263 4408ft 177kts
07-Apr-19 12:12 36.066454 -115.264527 229 6581ft 216kts
07-Apr-19 12:13 36.015862 -115.293387 185 6701ft 250kts
07-Apr-19 12:14 35.938681 -115.292730 163 9163ft 303kts
07-Apr-19 12:15 35.861695 -115.245283 132 12106ft 341kts
07-Apr-19 12:16 35.833465 -115.126150 111 14799ft 370kts
07-Apr-19 12:17 35.826347 -114.997080 87 17268ft 397kts
07-Apr-19 12:18 35.836448 -114.868956 89 19301ft 411kts
07-Apr-19 12:19 35.847107 -114.724109 89 21290ft 429kts
07-Apr-19 12:20 35.848936 -114.574336 114 22689ft 440kts
07-Apr-19 12:21 35.783424 -114.459383 133 25163ft 413kts
07-Apr-19 12:22 35.717029 -114.337941 133 26188ft 443kts
07-Apr-19 12:23 35.647313 -114.207797 132 27648ft 457kts
07-Apr-19 12:24 35.576498 -114.074532 132 28988ft 468kts
07-Apr-19 12:25 35.504180 -113.938052 133 30213ft 478kts
07-Apr-19 12:26 35.427738 -113.802439 134 31210ft 485kts
07-Apr-19 12:27 35.384528 -113.724469 134 31705ft 490kts
07-Apr-19 12:31 35.117130 -113.239503 134 32711ft 499kts
07-Apr-19 12:32 35.039355 -113.097738 134 32734ft 498kts
07-Apr-19 12:33 34.961384 -112.955369 133 32743ft 504kts
07-Apr-19 12:34 34.882884 -112.811623 133 32995ft 514kts
07-Apr-19 12:35 34.802299 -112.663775 132 32999ft 516kts
07-Apr-19 12:36 34.722334 -112.516762 132 33003ft 516kts
07-Apr-19 12:37 34.655253 -112.358918 118 33012ft 533kts
07-Apr-19 12:38 34.603592 -112.190463 118 32428ft 516kts
07-Apr-19 12:39 34.555656 -112.032676 119 30591ft 497kts
07-Apr-19 12:40 34.508101 -111.877642 118 29015ft 473kts
07-Apr-19 12:41 34.460885 -111.731412 133 27294ft 441kts
07-Apr-19 12:42 34.368714 -111.684133 200 25230ft 340kts
07-Apr-19 12:43 34.279463 -111.715607 200 23042ft 320kts
07-Apr-19 12:44 34.197126 -111.740810 199 21982ft 300kts
07-Apr-19 12:45 34.117918 -111.764849 199 20683ft 296kts
07-Apr-19 12:46 34.038229 -111.788945 197 19408ft 292kts
07-Apr-19 12:47 33.959027 -111.759647 150 18175ft 320kts
07-Apr-19 12:48 33.888378 -111.699105 152 17104ft 311kts
07-Apr-19 12:49 33.817244 -111.640092 153 16055ft 306kts
07-Apr-19 12:50 33.740704 -111.633912 191 14965ft 281kts
07-Apr-19 12:50 33.740704 -111.633912 191 14965ft 281kts
07-Apr-19 12:51 33.598259 -111.643916 184 12903ft 279kts
07-Apr-19 12:53 33.507413 -111.647570 184 11348ft 275kts
07-Apr-19 12:53 33.443415 -111.650114 183 10094ft 273kts
07-Apr-19 12:54 33.368131 -111.653132 182 7777ft 271kts
07-Apr-19 12:56 33.279860 -111.656468 180 4824ft 268kts
07-Apr-19 12:56 33.236951 -111.627114 78 2917ft 243kts
07-Apr-19 12:57 33.288392 -111.631440 313 1704ft 225kts
07-Apr-19 12:58 33.313892 -111.661630 316 1361ft 44kts
07-Apr-19 12:59 33.317263 -111.671462 267 1361ft 24kts
07-Apr-19 13:00 33.314811 -111.671580 135 1361ft 19kts
07-Apr-19 13:01 33.312900 -111.671185 215 1361ft 0kts
07-Apr-19 13:02 33.312900 -111.671185 215 1361ft 0kts
07-Apr-19 13:03 33.312900 -111.671185 215 1361ft 0kts
07-Apr-19 13:04 33.312900 -111.671185 215 1361ft 0kts
07-Apr-19 13:05 33.312900 -111.671185 215 1361ft 0kts
07-Apr-19 13:06 33.312900 -111.671185 215 1361ft 0kts
07-Apr-19 13:07 33.933384 -118.400581 173 114ft 0kts
07-Apr-19 13:08 33.933384 -118.400581 173 114ft 0kts
07-Apr-19 13:09 33.933384 -118.400581 173 114ft 0kts
07-Apr-19 13:10 33.933384 -118.400581 173 114ft 0kts
07-Apr-19 13:11 33.933384 -118.400581 173 114ft 0kts
07-Apr-19 13:12 33.933384 -118.400581 173 114ft 0kts
07-Apr-19 13:13 33.933384 -118.400581 173 114ft 0kts

Navigation Log

Ident Type
Flight plan parsing failed, navigation log unavailable